createdAt,value
2019-05-18T00:01:38.955Z,92.47
2019-05-18T00:04:07.810Z,86.10
2019-05-18T00:06:36.692Z,86.30
2019-05-18T00:09:07.298Z,88.23
2019-05-18T00:11:36.175Z,94.70
2019-05-18T00:14:05.065Z,87.97
2019-05-18T00:16:33.970Z,83.93
2019-05-18T00:19:03.633Z,88.53
2019-05-18T00:21:32.566Z,91.40
2019-05-18T00:24:01.516Z,91.83
2019-05-18T00:26:30.356Z,87.37
2019-05-18T00:28:59.211Z,73.87
2019-05-18T00:31:28.131Z,74.77
2019-05-18T00:33:56.982Z,79.73
2019-05-18T00:36:25.860Z,79.13
2019-05-18T00:38:54.891Z,71.13
2019-05-18T00:41:23.751Z,75.37
2019-05-18T00:43:52.609Z,80.20
2019-05-18T00:46:21.519Z,68.07
2019-05-18T00:48:50.385Z,76.27
2019-05-18T00:51:19.257Z,104.47
2019-05-18T00:53:48.252Z,111.67
2019-05-18T00:56:17.117Z,117.23
2019-05-18T00:58:45.970Z,91.23
2019-05-18T01:01:14.904Z,107.37
2019-05-18T01:03:43.768Z,76.70
2019-05-18T01:06:12.618Z,77.43
2019-05-18T01:08:41.526Z,76.03
2019-05-18T01:11:10.377Z,82.57
2019-05-18T01:13:39.240Z,82.17
2019-05-18T01:16:08.949Z,71.60
2019-05-18T01:18:37.836Z,74.67
2019-05-18T01:21:06.677Z,69.90
2019-05-18T01:23:35.602Z,74.60
2019-05-18T01:26:04.464Z,67.97
2019-05-18T01:28:33.322Z,69.07
2019-05-18T01:31:02.214Z,67.57
2019-05-18T01:33:31.092Z,74.37
2019-05-18T01:35:59.951Z,74.40
2019-05-18T01:38:28.856Z,78.87
2019-05-18T01:40:57.708Z,93.77
2019-05-18T01:43:26.558Z,77.37
2019-05-18T01:45:55.485Z,73.83
2019-05-18T01:48:24.335Z,74.73
2019-05-18T01:50:53.194Z,75.93
2019-05-18T01:53:22.081Z,66.07
2019-05-18T01:55:50.921Z,62.23
2019-05-18T01:58:19.776Z,66.93
2019-05-18T02:00:48.674Z,60.50
2019-05-18T02:03:17.531Z,71.63
2019-05-18T02:05:46.391Z,66.23
2019-05-18T02:08:15.431Z,76.33
2019-05-18T02:10:44.287Z,81.80
2019-05-18T02:13:13.149Z,73.63
2019-05-18T02:15:42.055Z,68.43
2019-05-18T02:18:10.913Z,70.40
2019-05-18T02:20:39.773Z,66.87
2019-05-18T02:23:08.691Z,68.33
2019-05-18T02:25:37.539Z,64.40
2019-05-18T02:28:06.814Z,72.07
2019-05-18T02:30:35.753Z,75.40
2019-05-18T02:33:04.614Z,78.67
2019-05-18T02:35:33.480Z,72.07
2019-05-18T02:38:16.054Z,79.03
2019-05-18T02:40:46.055Z,85.67
2019-05-18T02:43:15.501Z,87.13
2019-05-18T02:45:44.742Z,77.30
2019-05-18T02:48:13.604Z,87.83
2019-05-18T02:50:42.470Z,87.90
2019-05-18T02:53:11.377Z,90.53
2019-05-18T02:55:40.432Z,85.40
2019-05-18T02:58:09.278Z,84.27
2019-05-18T03:00:38.184Z,87.30
2019-05-18T03:03:07.072Z,85.07
2019-05-18T03:05:35.938Z,84.77
2019-05-18T03:08:04.985Z,84.93
2019-05-18T03:10:33.940Z,112.37
2019-05-18T03:13:02.798Z,101.67
2019-05-18T03:15:31.718Z,89.20
2019-05-18T03:18:00.978Z,89.83
2019-05-18T03:20:29.846Z,107.40
2019-05-18T03:22:59.001Z,86.07
2019-05-18T03:25:28.357Z,81.47
2019-05-18T03:27:57.234Z,89.90
2019-05-18T03:30:45.936Z,101.43
2019-05-18T03:33:10.126Z,100.93
2019-05-18T03:35:39.051Z,97.07
2019-05-18T03:38:07.910Z,96.37
2019-05-18T03:40:36.776Z,94.37
2019-05-18T03:43:05.673Z,82.27
2019-05-18T03:45:34.522Z,93.80
2019-05-18T03:48:03.394Z,93.00
2019-05-18T03:50:32.346Z,93.43
2019-05-18T03:53:01.211Z,93.83
2019-05-18T03:55:30.079Z,93.67
2019-05-18T03:57:59.003Z,91.37
2019-05-18T04:00:27.866Z,90.73
2019-05-18T04:02:56.727Z,96.23
2019-05-18T04:05:25.629Z,79.77
2019-05-18T04:07:54.492Z,79.10
2019-05-18T04:10:25.534Z,85.30
2019-05-18T04:12:54.545Z,67.87
2019-05-18T04:15:23.499Z,74.40
2019-05-18T04:17:52.361Z,71.83
2019-05-18T04:20:21.278Z,87.23
2019-05-18T04:22:50.135Z,76.47
2019-05-18T04:25:19.022Z,70.97
2019-05-18T04:27:47.919Z,65.47
2019-05-18T04:30:17.484Z,61.07
2019-05-18T04:32:46.343Z,70.17
2019-05-18T04:35:15.282Z,63.20
2019-05-18T04:37:44.139Z,59.93
2019-05-18T04:40:13.396Z,60.83
2019-05-18T04:42:42.311Z,57.97
2019-05-18T04:45:11.396Z,55.37
2019-05-18T04:47:40.256Z,57.90
2019-05-18T04:50:09.604Z,56.97
2019-05-18T04:52:38.452Z,49.00
2019-05-18T04:55:07.522Z,51.03
2019-05-18T04:57:36.455Z,46.70
2019-05-18T05:00:08.881Z,49.13
2019-05-18T05:02:37.752Z,50.00
2019-05-18T05:05:09.419Z,46.17
2019-05-18T05:07:38.286Z,45.80
2019-05-18T05:10:07.451Z,50.87
2019-05-18T05:12:36.393Z,47.83
2019-05-18T05:15:05.956Z,46.53
2019-05-18T05:17:34.820Z,45.67
2019-05-18T05:20:18.824Z,46.17
2019-05-18T05:22:35.838Z,47.07
2019-05-18T05:25:04.927Z,43.93
2019-05-18T05:27:34.906Z,44.60
2019-05-18T05:30:05.463Z,49.07
2019-05-18T05:32:34.326Z,41.10
2019-05-18T05:35:03.334Z,40.00
2019-05-18T05:37:32.242Z,36.37
2019-05-18T05:40:01.115Z,35.63
2019-05-18T05:42:30.013Z,34.33
2019-05-18T05:44:58.878Z,38.87
2019-05-18T05:47:27.782Z,37.23
2019-05-18T05:49:56.669Z,32.50
2019-05-18T05:52:25.547Z,29.70
2019-05-18T05:54:54.403Z,31.73
2019-05-18T05:57:23.320Z,34.33
2019-05-18T05:59:52.187Z,30.83
2019-05-18T06:02:21.070Z,27.87
2019-05-18T06:04:49.983Z,27.98
2019-05-18T06:07:18.851Z,25.00
2019-05-18T06:09:47.701Z,28.00
2019-05-18T06:12:16.724Z,29.90
2019-05-18T06:14:45.588Z,32.07
2019-05-18T06:17:14.476Z,32.90
2019-05-18T06:19:43.843Z,35.23
2019-05-18T06:22:12.748Z,40.40
2019-05-18T06:24:41.629Z,41.93
2019-05-18T06:27:10.531Z,44.07
2019-05-18T06:29:39.410Z,44.73
2019-05-18T06:32:08.292Z,46.47
2019-05-18T06:34:37.186Z,44.93
2019-05-18T06:37:07.533Z,43.63
2019-05-18T06:39:36.433Z,45.10
2019-05-18T06:42:05.466Z,49.47
2019-05-18T06:44:35.838Z,49.70
2019-05-18T06:47:04.710Z,47.00
2019-05-18T06:49:33.618Z,50.53
2019-05-18T06:52:02.669Z,43.53
2019-05-18T06:54:33.258Z,53.23
2019-05-18T06:57:03.122Z,47.93
2019-05-18T06:59:32.760Z,44.17
2019-05-18T07:02:03.539Z,48.57
2019-05-18T07:04:32.210Z,50.83
2019-05-18T07:07:01.201Z,52.87
2019-05-18T07:09:30.122Z,54.33
2019-05-18T07:12:00.017Z,48.63
2019-05-18T07:14:28.878Z,46.10
2019-05-18T07:16:57.759Z,44.40
2019-05-18T07:19:26.668Z,45.70
2019-05-18T07:21:55.614Z,43.17
2019-05-18T07:24:24.458Z,49.87
2019-05-18T07:26:53.759Z,42.00
2019-05-18T07:29:22.640Z,42.47
2019-05-18T07:31:51.494Z,41.45
2019-05-18T07:34:20.425Z,41.90
2019-05-18T07:36:49.286Z,40.20
2019-05-18T07:39:18.171Z,44.80
2019-05-18T07:41:47.351Z,41.10
2019-05-18T07:44:16.360Z,40.35
2019-05-18T07:46:45.230Z,36.03
2019-05-18T07:49:14.214Z,34.35
2019-05-18T07:51:43.065Z,32.58
2019-05-18T07:54:11.977Z,32.73
2019-05-18T07:56:40.886Z,35.75
2019-05-18T07:59:09.732Z,33.63
2019-05-18T08:01:38.616Z,29.77
2019-05-18T08:04:07.537Z,30.35
2019-05-18T08:06:36.435Z,27.50
2019-05-18T08:09:07.485Z,24.47
2019-05-18T08:11:36.429Z,26.97
2019-05-18T08:14:05.480Z,19.40
2019-05-18T08:16:34.372Z,16.55
2019-05-18T08:19:03.260Z,11.03
2019-05-18T08:21:32.145Z,11.15
2019-05-18T08:24:00.997Z,14.20
2019-05-18T08:26:29.906Z,14.98
2019-05-18T08:28:58.812Z,14.93
2019-05-18T08:31:27.669Z,14.25
2019-05-18T08:33:56.601Z,14.45
2019-05-18T08:36:25.453Z,15.78
2019-05-18T08:38:54.323Z,10.95
2019-05-18T08:41:23.241Z,10.05
2019-05-18T08:43:52.118Z,13.90
2019-05-18T08:46:20.978Z,15.25
2019-05-18T08:48:49.898Z,12.70
2019-05-18T08:51:18.751Z,13.58
2019-05-18T08:53:47.639Z,12.05
2019-05-18T08:56:16.606Z,10.30
2019-05-18T08:58:45.450Z,15.08
2019-05-18T09:01:14.328Z,12.70
2019-05-18T09:03:43.226Z,11.55
2019-05-18T09:06:14.888Z,10.65
2019-05-18T09:08:43.745Z,9.83
2019-05-18T09:11:12.663Z,9.53
2019-05-18T09:13:41.535Z,8.08
2019-05-18T09:16:10.410Z,10.45
2019-05-18T09:18:39.331Z,11.33
2019-05-18T09:21:08.193Z,8.78
2019-05-18T09:23:37.029Z,8.80
2019-05-18T09:26:05.958Z,8.28
2019-05-18T09:28:34.807Z,9.53
2019-05-18T09:31:05.391Z,8.43
2019-05-18T09:33:34.300Z,5.87
2019-05-18T09:36:03.157Z,6.97
2019-05-18T09:38:33.400Z,5.20
2019-05-18T09:41:02.743Z,5.10
2019-05-18T09:43:31.614Z,5.70
2019-05-18T09:46:00.465Z,7.08
2019-05-18T09:48:29.422Z,7.03
2019-05-18T09:50:58.273Z,4.53
2019-05-18T09:53:29.943Z,6.17
2019-05-18T09:55:57.656Z,8.13
2019-05-18T09:58:26.518Z,7.47
2019-05-18T10:00:55.395Z,9.05
2019-05-18T10:03:24.978Z,6.75
2019-05-18T10:05:53.835Z,5.30
2019-05-18T10:08:22.709Z,5.87
2019-05-18T10:10:51.804Z,5.12
2019-05-18T10:13:20.650Z,6.03
2019-05-18T10:15:49.521Z,5.80
2019-05-18T10:18:21.652Z,6.62
2019-05-18T10:20:48.945Z,8.75
2019-05-18T10:23:17.819Z,6.58
2019-05-18T10:25:46.740Z,6.62
2019-05-18T10:28:15.589Z,6.50
2019-05-18T10:30:44.437Z,7.70
2019-05-18T10:33:13.364Z,6.83
2019-05-18T10:35:42.240Z,8.63
2019-05-18T10:38:11.083Z,7.17
2019-05-18T10:40:39.983Z,6.10
2019-05-18T10:43:08.859Z,5.77
2019-05-18T10:45:37.716Z,7.07
2019-05-18T10:48:06.862Z,8.20
2019-05-18T10:50:35.721Z,6.13
2019-05-18T10:53:04.583Z,5.83
2019-05-18T10:55:34.436Z,6.17
2019-05-18T10:58:03.492Z,6.00
2019-05-18T11:00:32.343Z,6.10
2019-05-18T11:03:01.472Z,5.63
2019-05-18T11:05:30.336Z,5.63
2019-05-18T11:07:59.193Z,8.33
2019-05-18T11:10:28.123Z,6.27
2019-05-18T11:12:56.967Z,5.10
2019-05-18T11:15:25.914Z,7.20
2019-05-18T11:17:54.830Z,6.43
2019-05-18T11:20:24.217Z,5.67
2019-05-18T11:22:53.052Z,7.53
2019-05-18T11:25:22.017Z,5.97
2019-05-18T11:27:50.930Z,7.97
2019-05-18T11:30:20.975Z,6.57
2019-05-18T11:32:49.892Z,6.33
2019-05-18T11:35:19.130Z,5.43
2019-05-18T11:37:48.060Z,6.37
2019-05-18T11:40:18.266Z,10.53
2019-05-18T11:42:47.130Z,13.13
2019-05-18T11:45:17.795Z,13.70
2019-05-18T11:47:46.685Z,11.37
2019-05-18T11:50:16.372Z,15.87
2019-05-18T11:53:04.932Z,14.33
2019-05-18T11:55:33.786Z,13.97
2019-05-18T11:58:02.771Z,14.70
2019-05-18T12:00:31.680Z,13.53
2019-05-18T12:03:00.572Z,15.70
2019-05-18T12:05:29.418Z,13.10
2019-05-18T12:07:58.318Z,13.07
2019-05-18T12:10:27.174Z,13.03
2019-05-18T12:12:56.270Z,13.80
2019-05-18T12:15:25.401Z,17.27
2019-05-18T12:17:54.258Z,13.33
2019-05-18T12:20:24.918Z,13.77
2019-05-18T12:22:53.829Z,14.27
2019-05-18T12:25:22.703Z,13.47
2019-05-18T12:27:51.578Z,13.43
2019-05-18T12:30:21.111Z,14.93
2019-05-18T12:32:50.006Z,14.40
2019-05-18T12:35:18.863Z,15.43
2019-05-18T12:37:48.196Z,17.60
2019-05-18T12:40:19.283Z,17.43
2019-05-18T12:42:48.295Z,20.17
2019-05-18T12:45:18.078Z,20.23
2019-05-18T12:47:46.945Z,20.60
2019-05-18T12:50:16.753Z,14.97
2019-05-18T12:52:45.639Z,17.10
2019-05-18T12:55:16.224Z,19.23
2019-05-18T12:57:45.093Z,18.33
2019-05-18T13:00:16.124Z,22.03
2019-05-18T13:02:44.974Z,16.10
2019-05-18T13:05:14.247Z,17.13
2019-05-18T13:07:43.171Z,16.10
2019-05-18T13:10:12.941Z,18.57
2019-05-18T13:12:41.794Z,16.97
2019-05-18T13:15:12.034Z,17.70
2019-05-18T13:17:40.898Z,15.53
2019-05-18T13:20:11.372Z,15.10
2019-05-18T13:22:40.308Z,16.17
2019-05-18T13:25:10.490Z,16.53
2019-05-18T13:27:40.229Z,15.07
2019-05-18T13:30:11.196Z,16.40
2019-05-18T13:32:40.363Z,15.30
2019-05-18T13:35:09.756Z,16.97
2019-05-18T13:37:38.645Z,16.03
2019-05-18T13:40:08.133Z,16.53
2019-05-18T13:42:37.412Z,15.33
2019-05-18T13:45:08.733Z,13.47
2019-05-18T13:47:37.601Z,13.20
2019-05-18T13:50:08.479Z,13.83
2019-05-18T13:52:37.415Z,14.47
2019-05-18T13:55:06.778Z,15.73
2019-05-18T13:57:35.951Z,15.80
2019-05-18T14:00:07.428Z,13.77
2019-05-18T14:02:36.324Z,13.37
2019-05-18T14:05:06.552Z,15.67
2019-05-18T14:07:35.479Z,13.27
2019-05-18T14:10:08.573Z,13.90
2019-05-18T14:12:37.436Z,13.70
2019-05-18T14:15:07.034Z,13.77
2019-05-18T14:17:35.906Z,15.93
2019-05-18T14:20:06.100Z,11.93
2019-05-18T14:22:36.010Z,13.90
2019-05-18T14:25:18.598Z,12.80
2019-05-18T14:27:39.311Z,14.57
2019-05-18T14:30:08.741Z,13.87
2019-05-18T14:32:37.588Z,15.13
2019-05-18T14:35:09.496Z,14.33
2019-05-18T14:37:38.427Z,13.87
2019-05-18T14:40:08.009Z,19.37
2019-05-18T14:42:36.866Z,12.20
2019-05-18T14:45:07.394Z,12.33
2019-05-18T14:47:36.269Z,14.23
2019-05-18T14:50:07.243Z,13.27
2019-05-18T14:52:36.261Z,14.90
2019-05-18T14:55:06.725Z,15.23
2019-05-18T14:57:35.577Z,13.97
2019-05-18T15:00:07.950Z,13.60
2019-05-18T15:02:36.855Z,11.90
2019-05-18T15:05:08.813Z,12.47
2019-05-18T15:07:37.729Z,12.77
2019-05-18T15:10:08.326Z,12.67
2019-05-18T15:12:37.182Z,13.13
2019-05-18T15:15:08.232Z,14.90
2019-05-18T15:17:37.188Z,12.37
2019-05-18T15:20:10.333Z,13.00
2019-05-18T15:22:39.240Z,15.13
2019-05-18T15:25:08.526Z,12.30
2019-05-18T15:27:37.416Z,13.77
2019-05-18T15:30:08.573Z,15.33
2019-05-18T15:32:37.431Z,15.97
2019-05-18T15:35:08.171Z,18.60
2019-05-18T15:37:37.605Z,16.60
2019-05-18T15:40:08.751Z,14.67
2019-05-18T15:42:37.640Z,14.57
2019-05-18T15:45:10.369Z,15.37
2019-05-18T15:47:39.955Z,15.17
2019-05-18T15:50:09.258Z,15.07
2019-05-18T15:52:38.326Z,16.73
2019-05-18T15:55:08.293Z,18.67
2019-05-18T15:57:37.363Z,21.70
2019-05-18T16:00:08.309Z,16.43
2019-05-18T16:02:37.181Z,19.90
2019-05-18T16:05:06.738Z,19.03
2019-05-18T16:07:35.667Z,18.80
2019-05-18T16:10:05.534Z,17.50
2019-05-18T16:12:34.426Z,18.57
2019-05-18T16:15:04.479Z,18.03
2019-05-18T16:17:39.459Z,19.23
2019-05-18T16:20:05.253Z,59.63
2019-05-18T16:22:34.153Z,34.53
2019-05-18T16:25:03.029Z,29.23
2019-05-18T16:27:31.952Z,24.60
2019-05-18T16:30:00.848Z,20.73
2019-05-18T16:32:29.724Z,15.70
2019-05-18T16:34:58.976Z,14.30
2019-05-18T16:37:27.872Z,12.90
2019-05-18T16:39:56.721Z,11.27
2019-05-18T16:42:25.576Z,13.37
2019-05-18T16:44:54.497Z,10.80
2019-05-18T16:47:23.363Z,13.27
2019-05-18T16:49:52.237Z,12.57
2019-05-18T16:52:21.171Z,12.10
2019-05-18T16:54:50.061Z,15.47
2019-05-18T16:57:18.940Z,14.87
2019-05-18T16:59:47.841Z,14.53
2019-05-18T17:02:30.629Z,17.10
2019-05-18T17:04:47.239Z,18.03
2019-05-18T17:07:16.150Z,15.50
2019-05-18T17:09:45.029Z,15.80
2019-05-18T17:12:13.909Z,14.00
2019-05-18T17:14:42.861Z,15.77
2019-05-18T17:17:11.733Z,17.13
2019-05-18T17:19:40.607Z,15.83
2019-05-18T17:22:09.533Z,18.47
2019-05-18T17:24:38.378Z,18.37
2019-05-18T17:27:07.234Z,15.50
2019-05-18T17:29:36.169Z,17.93
2019-05-18T17:32:05.035Z,18.87
2019-05-18T17:34:33.900Z,16.37
2019-05-18T17:37:02.837Z,17.30
2019-05-18T17:39:31.684Z,18.10
2019-05-18T17:42:00.560Z,21.13
2019-05-18T17:44:29.505Z,27.13
2019-05-18T17:46:58.371Z,36.00
2019-05-18T17:49:27.269Z,28.17
2019-05-18T17:51:56.188Z,42.70
2019-05-18T17:54:25.049Z,34.63
2019-05-18T17:57:07.557Z,41.30
2019-05-18T17:59:24.549Z,50.43
2019-05-18T18:02:12.356Z,57.17
2019-05-18T18:04:41.429Z,54.00
2019-05-18T18:07:10.332Z,34.23
2019-05-18T18:09:39.209Z,36.80
2019-05-18T18:12:08.131Z,40.53
2019-05-18T18:14:37.067Z,40.00
2019-05-18T18:17:05.950Z,46.40
2019-05-18T18:19:34.883Z,41.10
2019-05-18T18:22:03.754Z,44.60
2019-05-18T18:24:32.643Z,49.73
2019-05-18T18:27:01.552Z,42.90
2019-05-18T18:29:30.393Z,32.77
2019-05-18T18:31:59.254Z,39.00
2019-05-18T18:34:28.195Z,35.83
2019-05-18T18:36:57.060Z,41.73
2019-05-18T18:39:25.921Z,33.27
2019-05-18T18:41:54.862Z,42.70
2019-05-18T18:44:23.739Z,39.60
2019-05-18T18:46:52.619Z,34.37
2019-05-18T18:49:21.579Z,38.70
2019-05-18T18:51:50.429Z,29.83
2019-05-18T18:54:19.292Z,37.97
2019-05-18T18:56:48.228Z,38.20
2019-05-18T18:59:17.101Z,51.00
2019-05-18T19:01:45.959Z,46.67
2019-05-18T19:04:14.893Z,53.73
2019-05-18T19:06:43.774Z,40.67
2019-05-18T19:09:12.649Z,37.10
2019-05-18T19:11:41.556Z,32.40
2019-05-18T19:14:10.426Z,38.90
2019-05-18T19:16:39.269Z,34.87
2019-05-18T19:19:08.181Z,41.87
2019-05-18T19:21:37.033Z,37.77
2019-05-18T19:24:05.939Z,42.17
2019-05-18T19:26:34.886Z,43.53
2019-05-18T19:29:03.742Z,37.40
2019-05-18T19:31:32.608Z,28.40
2019-05-18T19:34:01.521Z,32.10
2019-05-18T19:36:30.391Z,35.97
2019-05-18T19:38:59.271Z,38.20
2019-05-18T19:41:28.231Z,90.10
2019-05-18T19:43:57.149Z,95.43
2019-05-18T19:46:26.097Z,108.30
2019-05-18T19:48:55.052Z,104.03
2019-05-18T19:51:23.906Z,100.03
2019-05-18T19:53:52.745Z,65.50
2019-05-18T19:56:21.706Z,59.77
2019-05-18T19:58:50.579Z,54.90
2019-05-18T20:01:20.527Z,51.07
2019-05-18T20:03:49.432Z,45.93
2019-05-18T20:06:18.298Z,47.73
2019-05-18T20:08:47.153Z,56.13
2019-05-18T20:11:16.105Z,53.60
2019-05-18T20:13:45.003Z,54.73
2019-05-18T20:16:13.849Z,56.77
2019-05-18T20:18:42.803Z,54.90
2019-05-18T20:21:11.742Z,61.53
2019-05-18T20:23:40.568Z,78.27
2019-05-18T20:26:09.590Z,63.30
2019-05-18T20:28:38.455Z,43.97
2019-05-18T20:31:07.348Z,40.67
2019-05-18T20:33:36.285Z,47.43
2019-05-18T20:36:05.193Z,33.70
2019-05-18T20:38:34.099Z,53.03
2019-05-18T20:41:03.143Z,52.60
2019-05-18T20:43:32.080Z,48.37
2019-05-18T20:46:01.057Z,43.60
2019-05-18T20:48:30.067Z,45.93
2019-05-18T20:50:58.988Z,46.20
2019-05-18T20:53:27.945Z,46.63
2019-05-18T20:55:56.911Z,43.13
2019-05-18T20:58:38.807Z,42.80
2019-05-18T21:00:56.411Z,44.23
2019-05-18T21:03:25.345Z,46.63
2019-05-18T21:05:54.251Z,56.80
2019-05-18T21:08:28.915Z,56.17
2019-05-18T21:10:57.841Z,46.13
2019-05-18T21:13:29.158Z,38.23
2019-05-18T21:15:58.031Z,32.90
2019-05-18T21:18:26.986Z,37.73
2019-05-18T21:20:55.900Z,38.63
2019-05-18T21:23:24.809Z,58.97
2019-05-18T21:25:53.734Z,57.87
2019-05-18T21:28:22.606Z,65.30
2019-05-18T21:30:51.467Z,69.77
2019-05-18T21:33:20.416Z,73.57
2019-05-18T21:35:49.312Z,73.17
2019-05-18T21:38:18.177Z,69.73
2019-05-18T21:40:47.155Z,77.97
2019-05-18T21:43:16.040Z,71.73
2019-05-18T21:45:45.123Z,76.30
2019-05-18T21:48:14.050Z,69.00
2019-05-18T21:50:42.898Z,68.77
2019-05-18T21:53:11.765Z,64.97
2019-05-18T21:55:40.697Z,65.60
2019-05-18T21:58:12.176Z,65.23
2019-05-18T22:00:40.179Z,61.00
2019-05-18T22:03:09.104Z,70.50
2019-05-18T22:05:38.654Z,61.90
2019-05-18T22:08:07.536Z,49.80
2019-05-18T22:10:36.461Z,47.47
2019-05-18T22:13:05.326Z,69.47
2019-05-18T22:15:34.200Z,54.83
2019-05-18T22:18:03.120Z,52.40
2019-05-18T22:20:34.304Z,53.97
2019-05-18T22:23:03.555Z,59.00
2019-05-18T22:25:34.364Z,55.47
2019-05-18T22:28:03.215Z,48.30
2019-05-18T22:30:32.083Z,50.03
2019-05-18T22:33:01.016Z,55.23
2019-05-18T22:35:29.887Z,68.97
2019-05-18T22:37:58.754Z,70.77
2019-05-18T22:40:27.692Z,76.33
2019-05-18T22:42:56.557Z,80.33
2019-05-18T22:45:25.424Z,64.73
2019-05-18T22:47:54.363Z,64.80
2019-05-18T22:50:23.439Z,74.87
2019-05-18T22:52:52.324Z,94.67
2019-05-18T22:55:21.235Z,91.27
2019-05-18T22:57:50.091Z,78.43
2019-05-18T23:00:22.153Z,68.80
2019-05-18T23:02:51.493Z,50.57
2019-05-18T23:05:20.368Z,49.40
2019-05-18T23:07:49.245Z,55.30
2019-05-18T23:10:18.340Z,56.53
2019-05-18T23:12:47.213Z,60.97
2019-05-18T23:15:16.103Z,50.10
2019-05-18T23:17:45.051Z,47.60
2019-05-18T23:20:13.902Z,46.23
2019-05-18T23:22:42.757Z,44.03
2019-05-18T23:25:11.897Z,46.67
2019-05-18T23:27:40.778Z,45.80
2019-05-18T23:30:09.747Z,37.90
2019-05-18T23:32:38.732Z,38.53
2019-05-18T23:35:07.693Z,37.33
2019-05-18T23:37:36.546Z,34.23
2019-05-18T23:40:06.561Z,31.47
2019-05-18T23:42:35.409Z,33.33
2019-05-18T23:45:06.060Z,36.27
2019-05-18T23:47:35.023Z,35.10
2019-05-18T23:50:04.108Z,37.97
2019-05-18T23:52:32.962Z,39.23
2019-05-18T23:55:02.735Z,44.67
2019-05-18T23:57:31.603Z,39.57
